createdAt,value
2023-05-21T00:00:03.145Z,16.73
2023-05-21T00:01:06.289Z,16.67
2023-05-21T00:02:14.888Z,16.59
2023-05-21T00:03:18.261Z,16.60
2023-05-21T00:04:21.220Z,16.51
2023-05-21T00:05:24.316Z,16.46
2023-05-21T00:06:27.916Z,16.46
2023-05-21T00:07:33.423Z,16.45
2023-05-21T00:08:36.340Z,16.49
2023-05-21T00:09:39.713Z,16.55
2023-05-21T00:10:42.608Z,16.63
2023-05-21T00:11:45.445Z,16.56
2023-05-21T00:12:48.276Z,16.56
2023-05-21T00:13:51.163Z,16.51
2023-05-21T00:14:54.009Z,16.38
2023-05-21T00:15:56.957Z,16.48
2023-05-21T00:16:59.887Z,16.44
2023-05-21T00:18:03.919Z,16.41
2023-05-21T00:19:07.163Z,16.46
2023-05-21T00:20:10.334Z,16.53
2023-05-21T00:21:14.368Z,16.48
2023-05-21T00:22:17.322Z,16.47
2023-05-21T00:23:20.280Z,16.55
2023-05-21T00:24:23.230Z,16.51
2023-05-21T00:25:26.336Z,16.48
2023-05-21T00:26:29.215Z,16.52
2023-05-21T00:27:32.366Z,16.56
2023-05-21T00:28:35.372Z,16.66
2023-05-21T00:29:38.674Z,16.66
2023-05-21T00:30:43.369Z,16.63
2023-05-21T00:31:46.409Z,16.60
2023-05-21T00:32:49.399Z,16.53
2023-05-21T00:33:52.546Z,16.55
2023-05-21T00:34:55.913Z,16.56
2023-05-21T00:35:59.159Z,16.51
2023-05-21T00:37:03.481Z,16.51
2023-05-21T00:38:08.768Z,16.54
2023-05-21T00:39:13.521Z,16.51
2023-05-21T00:40:16.635Z,16.49
2023-05-21T00:41:20.095Z,16.45
2023-05-21T00:42:27.648Z,16.48
2023-05-21T00:43:30.515Z,16.59
2023-05-21T00:44:34.623Z,16.46
2023-05-21T00:45:38.067Z,16.38
2023-05-21T00:46:41.857Z,16.27
2023-05-21T00:47:46.137Z,16.30
2023-05-21T00:48:51.018Z,16.31
2023-05-21T00:49:53.995Z,16.34
2023-05-21T00:50:56.915Z,16.32
2023-05-21T00:52:01.861Z,16.33
2023-05-21T00:53:05.123Z,16.34
2023-05-21T00:54:08.574Z,16.20
2023-05-21T00:55:11.780Z,16.38
2023-05-21T00:56:14.762Z,16.33
2023-05-21T00:57:22.678Z,16.31
2023-05-21T00:58:25.948Z,16.23
2023-05-21T00:59:29.126Z,16.31
2023-05-21T01:00:36.066Z,16.32
2023-05-21T01:01:39.056Z,16.31
2023-05-21T01:02:42.598Z,16.29
2023-05-21T01:03:45.570Z,16.26
2023-05-21T01:04:48.506Z,16.30
2023-05-21T01:05:53.904Z,16.31
2023-05-21T01:06:58.887Z,16.27
2023-05-21T01:08:02.262Z,16.24
2023-05-21T01:09:07.466Z,16.32
2023-05-21T01:10:12.391Z,16.18
2023-05-21T01:11:15.368Z,16.20
2023-05-21T01:12:19.258Z,16.17
2023-05-21T01:13:23.504Z,16.18
2023-05-21T01:14:26.828Z,16.08
2023-05-21T01:15:30.225Z,16.15
2023-05-21T01:16:33.109Z,16.19
2023-05-21T01:17:36.156Z,16.17
2023-05-21T01:18:39.360Z,16.10
2023-05-21T01:19:44.947Z,16.16
2023-05-21T01:20:48.555Z,16.13
2023-05-21T01:22:02.023Z,16.04
2023-05-21T01:23:06.207Z,16.03
2023-05-21T01:24:09.041Z,16.00
2023-05-21T01:25:12.423Z,16.03
2023-05-21T01:26:16.170Z,16.02
2023-05-21T01:27:19.211Z,16.03
2023-05-21T01:28:22.099Z,16.00
2023-05-21T01:29:25.697Z,15.95
2023-05-21T01:30:28.869Z,16.01
2023-05-21T01:31:48.871Z,15.93
2023-05-21T01:33:18.048Z,15.81
2023-05-21T01:34:27.169Z,15.87
2023-05-21T01:35:55.279Z,15.85
2023-05-21T01:37:11.765Z,15.87
2023-05-21T01:38:26.676Z,15.93
2023-05-21T01:39:36.018Z,15.80
2023-05-21T01:40:58.955Z,15.78
2023-05-21T01:42:06.520Z,15.78
2023-05-21T01:43:10.929Z,15.82
2023-05-21T01:44:18.252Z,15.84
2023-05-21T01:45:24.478Z,15.69
2023-05-21T01:46:30.684Z,15.61
2023-05-21T01:47:36.287Z,15.68
2023-05-21T01:48:39.519Z,15.76
2023-05-21T01:49:42.965Z,15.62
2023-05-21T01:50:46.589Z,15.63
2023-05-21T01:51:50.084Z,15.61
2023-05-21T01:52:57.146Z,15.69
2023-05-21T01:54:00.023Z,15.64
2023-05-21T01:55:03.886Z,15.63
2023-05-21T01:56:07.454Z,15.65
2023-05-21T01:57:10.490Z,15.63
2023-05-21T01:58:13.609Z,15.62
2023-05-21T01:59:17.621Z,15.54
2023-05-21T02:00:24.968Z,15.53
2023-05-21T02:01:30.417Z,15.51
2023-05-21T02:02:33.667Z,15.47
2023-05-21T02:03:37.104Z,15.42
2023-05-21T02:04:41.785Z,15.44
2023-05-21T02:05:44.771Z,15.49
2023-05-21T02:06:47.900Z,15.40
2023-05-21T02:07:52.280Z,15.30
2023-05-21T02:08:55.861Z,15.46
2023-05-21T02:09:58.659Z,15.46
2023-05-21T02:11:01.655Z,15.68
2023-05-21T02:12:04.808Z,15.74
2023-05-21T02:13:07.807Z,15.60
2023-05-21T02:14:10.812Z,15.56
2023-05-21T02:15:18.332Z,15.49
2023-05-21T02:16:22.858Z,15.40
2023-05-21T02:17:26.499Z,15.49
2023-05-21T02:18:29.588Z,15.38
2023-05-21T02:19:32.705Z,15.34
2023-05-21T02:20:35.809Z,15.38
2023-05-21T02:21:38.712Z,15.36
2023-05-21T02:22:44.289Z,15.40
2023-05-21T02:23:47.254Z,15.40
2023-05-21T02:24:50.123Z,15.31
2023-05-21T02:25:53.101Z,15.33
2023-05-21T02:26:56.567Z,15.37
2023-05-21T02:27:59.813Z,15.30
2023-05-21T02:29:04.297Z,15.25
2023-05-21T02:30:09.224Z,15.24
2023-05-21T02:31:12.805Z,15.43
2023-05-21T02:32:15.717Z,15.36
2023-05-21T02:33:20.043Z,15.33
2023-05-21T02:34:23.176Z,15.29
2023-05-21T02:35:26.286Z,15.18
2023-05-21T02:36:29.105Z,15.21
2023-05-21T02:37:34.419Z,15.25
2023-05-21T02:38:38.558Z,15.27
2023-05-21T02:39:41.602Z,15.18
2023-05-21T02:40:44.467Z,15.15
2023-05-21T02:41:48.044Z,15.20
2023-05-21T02:42:50.951Z,15.22
2023-05-21T02:43:53.693Z,15.15
2023-05-21T02:44:57.006Z,15.09
2023-05-21T02:46:00.087Z,15.14
2023-05-21T02:47:03.244Z,15.06
2023-05-21T02:48:06.534Z,15.16
2023-05-21T02:49:09.457Z,15.09
2023-05-21T02:50:14.363Z,15.20
2023-05-21T02:51:17.156Z,15.21
2023-05-21T02:52:24.176Z,15.14
2023-05-21T02:53:27.174Z,15.14
2023-05-21T02:54:29.952Z,15.13
2023-05-21T02:55:32.881Z,15.14
2023-05-21T02:56:35.766Z,15.09
2023-05-21T02:57:38.867Z,14.94
2023-05-21T02:58:42.214Z,15.18
2023-05-21T02:59:46.165Z,15.18
2023-05-21T03:00:49.198Z,15.15
2023-05-21T03:01:52.191Z,15.18
2023-05-21T03:02:55.283Z,15.09
2023-05-21T03:03:58.353Z,15.02
2023-05-21T03:05:01.248Z,15.17
2023-05-21T03:06:04.289Z,15.19
2023-05-21T03:07:07.242Z,15.08
2023-05-21T03:08:10.055Z,15.08
2023-05-21T03:09:13.475Z,15.11
2023-05-21T03:10:16.601Z,15.11
2023-05-21T03:11:20.553Z,15.07
2023-05-21T03:12:23.455Z,15.08
2023-05-21T03:13:26.371Z,15.10
2023-05-21T03:14:29.421Z,15.17
2023-05-21T03:15:33.673Z,15.19
2023-05-21T03:16:36.700Z,15.24
2023-05-21T03:17:39.665Z,15.27
2023-05-21T03:18:44.626Z,15.24
2023-05-21T03:19:49.503Z,15.16
2023-05-21T03:20:52.348Z,15.02
2023-05-21T03:21:56.857Z,15.15
2023-05-21T03:23:00.848Z,15.17
2023-05-21T03:24:04.865Z,15.18
2023-05-21T03:25:07.954Z,15.27
2023-05-21T03:26:11.814Z,15.17
2023-05-21T03:27:14.709Z,15.14
2023-05-21T03:28:18.076Z,15.27
2023-05-21T03:29:21.079Z,15.20
2023-05-21T03:30:24.034Z,15.22
2023-05-21T03:31:27.392Z,15.18
2023-05-21T03:32:30.531Z,15.21
2023-05-21T03:33:33.575Z,15.19
2023-05-21T03:34:36.487Z,15.09
2023-05-21T03:35:39.452Z,15.15
2023-05-21T03:36:42.306Z,15.23
2023-05-21T03:37:45.204Z,15.28
2023-05-21T03:38:48.137Z,15.19
2023-05-21T03:39:51.115Z,15.26
2023-05-21T03:40:54.537Z,15.26
2023-05-21T03:41:57.369Z,15.33
2023-05-21T03:43:00.456Z,15.29
2023-05-21T03:44:03.408Z,15.32
2023-05-21T03:45:07.234Z,15.24
2023-05-21T03:46:10.270Z,15.29
2023-05-21T03:47:13.087Z,15.29
2023-05-21T03:48:16.160Z,15.36
2023-05-21T03:49:19.014Z,15.31
2023-05-21T03:50:21.975Z,15.34
2023-05-21T03:51:25.196Z,15.37
2023-05-21T03:52:28.101Z,15.41
2023-05-21T03:53:31.203Z,15.50
2023-05-21T03:54:34.205Z,15.55
2023-05-21T03:55:37.446Z,15.44
2023-05-21T03:56:40.435Z,15.51
2023-05-21T03:57:43.416Z,15.45
2023-05-21T03:58:47.089Z,15.46
2023-05-21T03:59:49.895Z,15.46
2023-05-21T04:00:52.868Z,15.49
2023-05-21T04:01:55.841Z,15.55
2023-05-21T04:02:59.326Z,15.61
2023-05-21T04:04:02.699Z,15.74
2023-05-21T04:05:06.066Z,15.73
2023-05-21T04:06:10.522Z,15.66
2023-05-21T04:07:15.799Z,15.69
2023-05-21T04:08:18.618Z,15.66
2023-05-21T04:09:22.085Z,15.67
2023-05-21T04:10:25.034Z,15.71
2023-05-21T04:11:27.880Z,15.74
2023-05-21T04:12:30.862Z,15.75
2023-05-21T04:13:33.837Z,15.74
2023-05-21T04:14:37.949Z,15.86
2023-05-21T04:15:41.139Z,15.93
2023-05-21T04:16:44.427Z,15.90
2023-05-21T04:17:47.781Z,15.91
2023-05-21T04:18:51.719Z,15.90
2023-05-21T04:19:54.796Z,15.92
2023-05-21T04:20:59.455Z,15.96
2023-05-21T04:22:03.438Z,16.00
2023-05-21T04:23:06.382Z,15.91
2023-05-21T04:24:09.237Z,16.03
2023-05-21T04:25:12.390Z,16.09
2023-05-21T04:26:16.646Z,16.14
2023-05-21T04:27:19.586Z,16.14
2023-05-21T04:28:24.511Z,16.17
2023-05-21T04:29:28.222Z,16.19
2023-05-21T04:30:31.145Z,16.29
2023-05-21T04:31:34.302Z,16.32
2023-05-21T04:32:37.260Z,16.34
2023-05-21T04:33:42.458Z,16.48
2023-05-21T04:34:45.509Z,16.51
2023-05-21T04:35:51.124Z,16.52
2023-05-21T04:36:54.392Z,16.57
2023-05-21T04:37:57.292Z,16.68
2023-05-21T04:39:00.617Z,16.77
2023-05-21T04:40:04.521Z,16.78
2023-05-21T04:41:07.533Z,16.83
2023-05-21T04:42:11.275Z,16.78
2023-05-21T04:43:14.250Z,16.81
2023-05-21T04:44:17.141Z,16.82
2023-05-21T04:45:20.109Z,16.82
2023-05-21T04:46:26.395Z,16.80
2023-05-21T04:47:30.768Z,16.79
2023-05-21T04:48:33.640Z,16.89
2023-05-21T04:49:36.368Z,16.80
2023-05-21T04:50:39.352Z,16.78
2023-05-21T04:51:42.178Z,16.86
2023-05-21T04:52:45.877Z,16.88
2023-05-21T04:53:50.167Z,16.86
2023-05-21T04:54:54.566Z,16.91
2023-05-21T04:55:59.596Z,17.04
2023-05-21T04:57:03.211Z,17.00
2023-05-21T04:58:11.205Z,16.99
2023-05-21T04:59:14.665Z,17.02
2023-05-21T05:00:17.842Z,17.04
2023-05-21T05:01:25.994Z,16.93
2023-05-21T05:02:29.010Z,16.91
2023-05-21T05:03:31.915Z,17.03
2023-05-21T05:04:34.768Z,17.11
2023-05-21T05:05:38.020Z,17.06
2023-05-21T05:06:41.235Z,17.20
2023-05-21T05:07:44.271Z,17.21
2023-05-21T05:08:47.384Z,17.20
2023-05-21T05:09:50.240Z,17.32
2023-05-21T05:10:53.121Z,17.32
2023-05-21T05:11:56.083Z,17.24
2023-05-21T05:12:59.186Z,17.32
2023-05-21T05:14:02.120Z,17.29
2023-05-21T05:15:05.237Z,17.42
2023-05-21T05:16:08.344Z,17.40
2023-05-21T05:17:14.939Z,17.51
2023-05-21T05:18:17.900Z,17.49
2023-05-21T05:19:21.221Z,17.59
2023-05-21T05:20:24.161Z,17.52
2023-05-21T05:21:27.482Z,17.55
2023-05-21T05:22:30.423Z,17.58
2023-05-21T05:23:33.368Z,17.62
2023-05-21T05:24:36.142Z,17.74
2023-05-21T05:25:39.218Z,17.73
2023-05-21T05:26:42.135Z,17.65
2023-05-21T05:27:45.238Z,17.64
2023-05-21T05:28:48.121Z,17.65
2023-05-21T05:29:51.118Z,17.77
2023-05-21T05:30:54.478Z,17.87
2023-05-21T05:31:57.385Z,17.82
2023-05-21T05:33:00.457Z,17.94
2023-05-21T05:34:03.530Z,18.04
2023-05-21T05:35:07.574Z,18.13
2023-05-21T05:36:10.449Z,18.22
2023-05-21T05:37:13.362Z,18.10
2023-05-21T05:38:17.414Z,18.13
2023-05-21T05:39:20.271Z,18.09
2023-05-21T05:40:23.089Z,18.08
2023-05-21T05:41:27.351Z,18.13
2023-05-21T05:42:30.242Z,18.19
2023-05-21T05:43:33.241Z,18.22
2023-05-21T05:44:36.194Z,18.32
2023-05-21T05:45:39.311Z,18.38
2023-05-21T05:46:42.610Z,18.53
2023-05-21T05:47:45.770Z,18.47
2023-05-21T05:48:48.615Z,18.52
2023-05-21T05:49:51.508Z,18.56
2023-05-21T05:50:55.445Z,18.63
2023-05-21T05:51:58.295Z,18.68
2023-05-21T05:53:01.166Z,18.76
2023-05-21T05:54:04.238Z,18.63
2023-05-21T05:55:09.452Z,18.75
2023-05-21T05:56:12.395Z,18.89
2023-05-21T05:57:15.230Z,18.95
2023-05-21T05:58:18.094Z,19.05
2023-05-21T05:59:20.969Z,19.02
2023-05-21T06:00:24.052Z,19.17
2023-05-21T06:01:27.238Z,19.21
2023-05-21T06:02:30.335Z,19.21
2023-05-21T06:03:33.301Z,19.26
2023-05-21T06:04:36.435Z,19.43
2023-05-21T06:05:39.684Z,19.42
2023-05-21T06:06:42.885Z,19.48
2023-05-21T06:07:45.973Z,19.52
2023-05-21T06:08:48.933Z,19.42
2023-05-21T06:09:51.913Z,19.45
2023-05-21T06:10:54.734Z,19.61
2023-05-21T06:11:57.631Z,19.74
2023-05-21T06:13:00.467Z,19.68
2023-05-21T06:14:03.394Z,19.66
2023-05-21T06:15:06.912Z,19.61
2023-05-21T06:16:10.342Z,19.79
2023-05-21T06:17:13.496Z,19.80
2023-05-21T06:18:16.599Z,19.79
2023-05-21T06:19:19.411Z,19.89
2023-05-21T06:20:22.405Z,19.95
2023-05-21T06:21:25.496Z,19.93
2023-05-21T06:22:28.509Z,20.07
2023-05-21T06:23:32.965Z,20.05
2023-05-21T06:24:36.093Z,20.06
2023-05-21T06:25:40.910Z,20.26
2023-05-21T06:26:44.001Z,20.36
2023-05-21T06:27:47.019Z,20.26
2023-05-21T06:28:50.219Z,20.11
2023-05-21T06:29:53.123Z,20.21
2023-05-21T06:30:56.157Z,20.31
2023-05-21T06:31:59.120Z,20.32
2023-05-21T06:33:02.212Z,20.43
2023-05-21T06:34:05.359Z,20.53
2023-05-21T06:35:09.207Z,20.68
2023-05-21T06:36:12.283Z,20.58
2023-05-21T06:37:19.450Z,20.66
2023-05-21T06:38:22.395Z,20.60
2023-05-21T06:39:25.295Z,20.79
2023-05-21T06:40:28.187Z,20.75
2023-05-21T06:41:31.292Z,20.81
2023-05-21T06:42:34.126Z,20.87
2023-05-21T06:43:36.941Z,21.00
2023-05-21T06:44:39.956Z,21.11
2023-05-21T06:45:42.837Z,21.28
2023-05-21T06:46:45.889Z,21.34
2023-05-21T06:47:48.902Z,21.45
2023-05-21T06:48:51.875Z,21.51
2023-05-21T06:49:54.779Z,21.52
2023-05-21T06:50:57.612Z,21.80
2023-05-21T06:52:00.528Z,21.78
2023-05-21T06:53:03.626Z,21.74
2023-05-21T06:54:06.530Z,21.83
2023-05-21T06:55:09.664Z,21.71
2023-05-21T06:56:13.336Z,21.78
2023-05-21T06:57:16.721Z,21.92
2023-05-21T06:58:19.876Z,22.05
2023-05-21T06:59:22.836Z,21.90
2023-05-21T07:00:26.228Z,21.86
2023-05-21T07:01:29.181Z,22.02
2023-05-21T07:02:32.307Z,22.08
2023-05-21T07:03:36.705Z,22.13
2023-05-21T07:04:39.547Z,22.24
2023-05-21T07:05:42.368Z,22.28
2023-05-21T07:06:45.207Z,22.46
2023-05-21T07:07:48.131Z,22.46
2023-05-21T07:08:51.075Z,22.46
2023-05-21T07:09:54.013Z,22.42
2023-05-21T07:10:56.832Z,22.48
2023-05-21T07:11:59.823Z,22.53
2023-05-21T07:13:02.663Z,22.45
2023-05-21T07:14:05.478Z,22.45
2023-05-21T07:15:09.484Z,22.65
2023-05-21T07:16:12.512Z,22.78
2023-05-21T07:17:15.538Z,22.73
2023-05-21T07:18:19.474Z,22.77
2023-05-21T07:19:22.548Z,22.90
2023-05-21T07:20:25.815Z,22.87
2023-05-21T07:21:28.681Z,22.86
2023-05-21T07:22:31.487Z,22.87
2023-05-21T07:23:34.433Z,23.06
2023-05-21T07:24:37.642Z,23.03
2023-05-21T07:25:40.582Z,22.92
2023-05-21T07:26:43.454Z,22.93
2023-05-21T07:27:46.406Z,22.74
2023-05-21T07:28:49.352Z,22.98
2023-05-21T07:29:52.370Z,23.00
2023-05-21T07:30:55.334Z,23.28
2023-05-21T07:31:58.347Z,23.27
2023-05-21T07:33:01.525Z,23.38
2023-05-21T07:34:04.445Z,23.38
2023-05-21T07:35:07.527Z,23.23
2023-05-21T07:36:10.304Z,23.35
2023-05-21T07:37:14.183Z,23.38
2023-05-21T07:38:17.852Z,23.54
2023-05-21T07:39:21.050Z,23.54
2023-05-21T07:40:23.892Z,23.61
2023-05-21T07:41:26.839Z,23.59
2023-05-21T07:42:29.731Z,23.86
2023-05-21T07:43:32.634Z,23.96
2023-05-21T07:44:35.678Z,24.17
2023-05-21T07:45:38.772Z,24.15
2023-05-21T07:46:41.888Z,24.11
2023-05-21T07:47:46.981Z,23.94
2023-05-21T07:48:50.354Z,24.16
2023-05-21T07:49:53.212Z,24.14
2023-05-21T07:50:56.812Z,24.32
2023-05-21T07:51:59.667Z,24.30
2023-05-21T07:53:02.524Z,24.31
2023-05-21T07:54:05.427Z,24.34
2023-05-21T07:55:09.732Z,24.54
2023-05-21T07:56:12.638Z,24.30
2023-05-21T07:57:15.368Z,24.54
2023-05-21T07:58:20.409Z,24.59
2023-05-21T07:59:23.231Z,24.64
2023-05-21T08:00:26.181Z,24.48
2023-05-21T08:01:31.807Z,24.64
2023-05-21T08:02:34.775Z,24.79
2023-05-21T08:03:37.849Z,24.90
2023-05-21T08:04:41.461Z,24.80
2023-05-21T08:05:49.065Z,24.96
2023-05-21T08:06:52.175Z,25.06
2023-05-21T08:07:55.014Z,25.23
2023-05-21T08:08:57.882Z,25.11
2023-05-21T08:10:02.262Z,25.25
2023-05-21T08:11:05.990Z,24.95
2023-05-21T08:12:08.819Z,25.34
2023-05-21T08:13:16.133Z,25.15
2023-05-21T08:14:19.070Z,25.07
2023-05-21T08:15:21.952Z,25.39
2023-05-21T08:16:24.966Z,25.65
2023-05-21T08:17:28.922Z,25.68
2023-05-21T08:18:32.224Z,25.74
2023-05-21T08:19:35.144Z,26.08
2023-05-21T08:20:38.210Z,25.98
2023-05-21T08:21:41.126Z,26.07
2023-05-21T08:22:44.517Z,26.12
2023-05-21T08:23:47.500Z,26.09
2023-05-21T08:24:50.331Z,26.29
2023-05-21T08:25:53.815Z,26.45
2023-05-21T08:26:56.777Z,26.18
2023-05-21T08:27:59.782Z,26.28
2023-05-21T08:29:03.062Z,25.96
2023-05-21T08:30:07.104Z,25.96
2023-05-21T08:31:10.117Z,26.00
2023-05-21T08:32:13.131Z,25.91
2023-05-21T08:33:16.125Z,26.12
2023-05-21T08:34:19.081Z,25.85
2023-05-21T08:35:22.062Z,25.96
2023-05-21T08:36:25.369Z,25.82
2023-05-21T08:37:28.298Z,25.81
2023-05-21T08:38:31.589Z,25.85
2023-05-21T08:39:34.601Z,25.84
2023-05-21T08:40:37.691Z,25.75
2023-05-21T08:41:46.716Z,25.69
2023-05-21T08:42:50.221Z,25.97
2023-05-21T08:43:59.774Z,26.13
2023-05-21T08:45:06.309Z,26.20
2023-05-21T08:46:10.212Z,26.12
2023-05-21T08:47:16.910Z,25.87
2023-05-21T08:48:22.599Z,26.12
2023-05-21T08:49:31.410Z,26.40
2023-05-21T08:50:34.295Z,26.33
2023-05-21T08:51:38.914Z,26.35
2023-05-21T08:52:42.283Z,26.53
2023-05-21T08:53:46.004Z,26.42
2023-05-21T08:54:52.790Z,26.54
2023-05-21T08:55:56.601Z,26.41
2023-05-21T08:57:01.020Z,26.54
2023-05-21T08:58:04.894Z,26.55
2023-05-21T08:59:07.992Z,26.60
2023-05-21T09:00:12.099Z,26.50
2023-05-21T09:01:15.307Z,26.39
2023-05-21T09:02:20.325Z,26.23
2023-05-21T09:03:24.521Z,25.90
2023-05-21T09:04:29.012Z,26.31
2023-05-21T09:05:32.114Z,26.64
2023-05-21T09:06:35.157Z,26.73
2023-05-21T09:07:52.488Z,27.03
2023-05-21T09:09:07.097Z,27.26
2023-05-21T09:10:13.510Z,26.97
2023-05-21T09:11:16.767Z,26.78
2023-05-21T09:12:19.944Z,27.07
2023-05-21T09:13:25.717Z,27.05
2023-05-21T09:14:29.254Z,27.21
2023-05-21T09:15:32.863Z,26.73
2023-05-21T09:16:35.994Z,27.11
2023-05-21T09:17:39.007Z,27.22
2023-05-21T09:18:41.959Z,27.38
2023-05-21T09:20:15.357Z,27.27
2023-05-21T09:21:26.876Z,27.55
2023-05-21T09:22:29.912Z,27.15
2023-05-21T09:23:33.261Z,27.06
2023-05-21T09:24:36.648Z,27.03
2023-05-21T09:25:40.022Z,27.31
2023-05-21T09:26:44.079Z,27.75
2023-05-21T09:27:47.021Z,27.81
2023-05-21T09:28:50.896Z,27.75
2023-05-21T09:29:53.773Z,27.50
2023-05-21T09:30:56.858Z,27.70
2023-05-21T09:32:06.125Z,28.06
2023-05-21T09:33:08.886Z,28.02
2023-05-21T09:34:12.068Z,27.40
2023-05-21T09:35:15.962Z,27.36
2023-05-21T09:36:20.667Z,27.78
2023-05-21T09:37:27.511Z,27.89
2023-05-21T09:38:34.844Z,28.01
2023-05-21T09:39:41.473Z,28.18
2023-05-21T09:40:48.357Z,27.89
2023-05-21T09:41:51.274Z,28.05
2023-05-21T09:42:55.397Z,28.02
2023-05-21T09:44:05.004Z,28.14
2023-05-21T09:45:11.457Z,27.37
2023-05-21T09:46:14.553Z,27.40
2023-05-21T09:47:20.819Z,27.88
2023-05-21T09:48:42.210Z,28.18
2023-05-21T09:49:45.176Z,28.12
2023-05-21T09:50:48.006Z,27.51
2023-05-21T09:51:50.901Z,27.91
2023-05-21T09:52:55.672Z,28.04
2023-05-21T09:53:58.761Z,28.02
2023-05-21T09:55:02.144Z,28.15
2023-05-21T09:56:05.601Z,28.35
2023-05-21T09:57:08.633Z,28.40
2023-05-21T09:58:11.596Z,28.55
2023-05-21T09:59:14.613Z,28.69
2023-05-21T10:00:20.354Z,29.12
2023-05-21T10:01:24.884Z,29.34
2023-05-21T10:02:30.266Z,29.64
2023-05-21T10:03:39.399Z,29.42
2023-05-21T10:04:43.493Z,29.56
2023-05-21T10:05:46.499Z,29.23
2023-05-21T10:06:51.434Z,28.08
2023-05-21T10:08:02.156Z,28.68
2023-05-21T10:09:10.820Z,28.93
2023-05-21T10:10:17.968Z,28.23
2023-05-21T10:11:24.203Z,28.44
2023-05-21T10:12:30.842Z,27.09
2023-05-21T10:13:39.949Z,26.91
2023-05-21T10:14:47.010Z,27.21
2023-05-21T10:15:56.054Z,28.03
2023-05-21T10:17:01.141Z,28.41
2023-05-21T10:18:05.087Z,28.73
2023-05-21T10:19:11.267Z,28.49
2023-05-21T10:20:14.863Z,28.43
2023-05-21T10:21:18.414Z,27.94
2023-05-21T10:22:21.537Z,28.27
2023-05-21T10:23:26.032Z,28.76
2023-05-21T10:24:29.721Z,29.33
2023-05-21T10:25:32.824Z,29.61
2023-05-21T10:26:36.627Z,29.42
2023-05-21T10:27:39.828Z,29.21
2023-05-21T10:28:43.591Z,28.90
2023-05-21T10:29:48.170Z,29.03
2023-05-21T10:30:52.654Z,29.39
2023-05-21T10:31:56.154Z,29.60
2023-05-21T10:33:00.277Z,29.99
2023-05-21T10:34:06.767Z,29.99
2023-05-21T10:35:10.342Z,29.70
2023-05-21T10:36:19.015Z,30.07
2023-05-21T10:37:28.510Z,29.88
2023-05-21T10:38:34.101Z,29.71
2023-05-21T10:39:39.514Z,29.88
2023-05-21T10:40:42.453Z,29.89
2023-05-21T10:42:06.116Z,30.11
2023-05-21T10:43:34.879Z,29.70
2023-05-21T10:44:49.740Z,30.08
2023-05-21T10:45:52.499Z,30.06
2023-05-21T10:47:01.258Z,30.33
2023-05-21T10:48:19.535Z,29.77
2023-05-21T10:49:50.418Z,29.85
2023-05-21T10:51:16.286Z,28.88
2023-05-21T10:52:24.958Z,29.67
2023-05-21T10:54:09.381Z,29.74
2023-05-21T10:55:15.289Z,29.55
2023-05-21T10:56:42.821Z,29.33
2023-05-21T10:58:14.139Z,29.99
2023-05-21T10:59:36.858Z,30.66
2023-05-21T11:00:41.383Z,30.60
2023-05-21T11:01:45.617Z,30.49
2023-05-21T11:02:52.074Z,30.44
2023-05-21T11:03:56.284Z,30.80
2023-05-21T11:05:02.070Z,30.66
2023-05-21T11:06:08.743Z,29.83
2023-05-21T11:07:13.250Z,30.29
2023-05-21T11:08:27.323Z,30.45
2023-05-21T11:09:30.405Z,30.66
2023-05-21T11:10:41.197Z,30.68
2023-05-21T11:11:48.806Z,30.51
2023-05-21T11:13:13.277Z,30.46
2023-05-21T11:14:38.420Z,30.56
2023-05-21T11:16:17.332Z,30.08
2023-05-21T11:17:42.230Z,29.98
2023-05-21T11:18:45.113Z,29.96
2023-05-21T11:19:48.281Z,29.55
2023-05-21T11:20:51.814Z,29.06
2023-05-21T11:21:55.896Z,29.01
2023-05-21T11:22:58.830Z,29.02
2023-05-21T11:24:06.678Z,28.91
2023-05-21T11:25:10.528Z,28.85
2023-05-21T11:26:16.601Z,29.40
2023-05-21T11:27:40.128Z,29.25
2023-05-21T11:28:43.212Z,29.65
2023-05-21T11:29:46.231Z,29.93
2023-05-21T11:31:27.231Z,29.63
2023-05-21T11:32:30.178Z,28.77
2023-05-21T11:33:34.073Z,28.20
2023-05-21T11:34:46.185Z,28.81
2023-05-21T11:35:55.228Z,29.12
2023-05-21T11:37:23.609Z,28.46
2023-05-21T11:38:31.841Z,28.91
2023-05-21T11:39:40.684Z,29.41
2023-05-21T11:40:56.796Z,29.90
2023-05-21T11:42:04.372Z,30.08
2023-05-21T11:43:07.918Z,30.24
2023-05-21T11:44:11.106Z,30.15
2023-05-21T11:45:18.468Z,30.34
2023-05-21T11:46:21.478Z,29.69
2023-05-21T11:47:26.605Z,29.32
2023-05-21T11:48:32.766Z,29.46
2023-05-21T11:49:37.240Z,29.40
2023-05-21T11:50:42.550Z,29.03
2023-05-21T11:51:45.607Z,28.99
2023-05-21T11:52:49.965Z,28.93
2023-05-21T11:53:52.950Z,29.25
2023-05-21T11:54:57.516Z,29.50
2023-05-21T11:56:02.894Z,29.67
2023-05-21T11:57:08.875Z,29.92
2023-05-21T11:58:14.640Z,29.98
2023-05-21T11:59:18.760Z,30.29
2023-05-21T12:00:22.427Z,30.16
2023-05-21T12:01:25.326Z,29.58
2023-05-21T12:02:33.016Z,28.81
2023-05-21T12:03:36.276Z,29.47
2023-05-21T12:04:39.296Z,29.78
2023-05-21T12:05:49.120Z,29.85
2023-05-21T12:06:52.214Z,30.13
2023-05-21T12:07:55.844Z,29.72
2023-05-21T12:08:59.214Z,29.79
2023-05-21T12:10:02.186Z,29.76
2023-05-21T12:11:05.302Z,29.34
2023-05-21T12:12:16.812Z,29.00
2023-05-21T12:13:19.749Z,28.89
2023-05-21T12:14:23.539Z,28.95
2023-05-21T12:15:27.982Z,29.29
2023-05-21T12:16:32.908Z,29.55
2023-05-21T12:17:35.967Z,29.77
2023-05-21T12:18:39.119Z,30.08
2023-05-21T12:19:42.734Z,29.78
2023-05-21T12:20:46.192Z,30.21
2023-05-21T12:21:49.293Z,30.52
2023-05-21T12:22:52.397Z,30.76
2023-05-21T12:23:56.054Z,30.79
2023-05-21T12:25:01.218Z,30.90
2023-05-21T12:26:04.845Z,30.77
2023-05-21T12:27:13.746Z,30.72
2023-05-21T12:28:16.834Z,30.71
2023-05-21T12:29:20.597Z,31.06
2023-05-21T12:30:24.547Z,31.20
2023-05-21T12:31:33.043Z,31.18
2023-05-21T12:32:38.515Z,30.32
2023-05-21T12:33:41.449Z,30.55
2023-05-21T12:34:49.924Z,30.52
2023-05-21T12:35:55.081Z,30.52
2023-05-21T12:36:57.933Z,30.71
2023-05-21T12:38:02.530Z,30.87
2023-05-21T12:39:05.622Z,31.02
2023-05-21T12:40:09.354Z,31.09
2023-05-21T12:41:12.251Z,30.64
2023-05-21T12:42:15.367Z,30.51
2023-05-21T12:43:18.355Z,30.56
2023-05-21T12:44:22.979Z,30.45
2023-05-21T12:45:26.198Z,30.85
2023-05-21T12:46:29.150Z,30.91
2023-05-21T12:47:33.501Z,30.49
2023-05-21T12:48:36.390Z,30.68
2023-05-21T12:49:45.087Z,30.32
2023-05-21T12:50:47.984Z,30.40
2023-05-21T12:51:50.995Z,29.87
2023-05-21T12:52:58.158Z,29.78
2023-05-21T12:54:03.906Z,30.00
2023-05-21T12:55:09.401Z,30.27
2023-05-21T12:56:13.446Z,30.01
2023-05-21T12:57:18.636Z,30.14
2023-05-21T12:58:22.666Z,29.67
2023-05-21T12:59:25.792Z,29.55
2023-05-21T13:00:28.876Z,29.65
2023-05-21T13:01:31.886Z,29.53
2023-05-21T13:02:35.732Z,29.53
2023-05-21T13:03:39.263Z,29.86
2023-05-21T13:04:42.584Z,29.70
2023-05-21T13:05:45.555Z,29.58
2023-05-21T13:06:48.548Z,29.06
2023-05-21T13:07:51.896Z,29.22
2023-05-21T13:08:56.175Z,29.20
2023-05-21T13:10:00.265Z,29.41
2023-05-21T13:11:03.787Z,29.37
2023-05-21T13:12:06.846Z,29.41
2023-05-21T13:13:09.718Z,29.33
2023-05-21T13:14:12.583Z,29.76
2023-05-21T13:15:15.841Z,29.48
2023-05-21T13:16:22.353Z,29.80
2023-05-21T13:17:26.385Z,29.81
2023-05-21T13:18:29.346Z,29.93
2023-05-21T13:19:32.695Z,30.07
2023-05-21T13:20:37.098Z,30.31
2023-05-21T13:21:40.161Z,29.37
2023-05-21T13:22:48.036Z,29.64
2023-05-21T13:23:50.938Z,29.68
2023-05-21T13:24:53.866Z,30.05
2023-05-21T13:25:56.813Z,30.30
2023-05-21T13:26:59.962Z,30.15
2023-05-21T13:28:10.599Z,29.85
2023-05-21T13:29:15.207Z,29.93
2023-05-21T13:30:19.139Z,30.16
2023-05-21T13:31:22.671Z,30.05
2023-05-21T13:32:25.712Z,29.85
2023-05-21T13:33:28.834Z,29.48
2023-05-21T13:34:31.833Z,29.15
2023-05-21T13:35:34.931Z,28.70
2023-05-21T13:36:38.153Z,29.15
2023-05-21T13:37:41.943Z,29.28
2023-05-21T13:38:44.826Z,29.18
2023-05-21T13:39:48.138Z,29.18
2023-05-21T13:40:51.096Z,29.18
2023-05-21T13:41:54.157Z,29.04
2023-05-21T13:42:57.178Z,29.30
2023-05-21T13:44:00.259Z,29.43
2023-05-21T13:45:03.342Z,29.48
2023-05-21T13:46:06.486Z,29.47
2023-05-21T13:47:10.640Z,29.74
2023-05-21T13:48:13.616Z,30.08
2023-05-21T13:49:16.736Z,30.08
2023-05-21T13:50:19.654Z,29.66
2023-05-21T13:51:37.579Z,29.34
2023-05-21T13:52:41.948Z,29.46